createdAt,value
2019-05-19T00:01:54.382Z,94421.80
2019-05-19T00:04:21.563Z,94425.23
2019-05-19T00:06:48.308Z,94425.03
2019-05-19T00:09:16.708Z,94423.75
2019-05-19T00:11:43.877Z,94429.47
2019-05-19T00:14:10.581Z,94430.17
2019-05-19T00:16:37.266Z,94434.63
2019-05-19T00:19:04.154Z,94434.18
2019-05-19T00:21:30.848Z,94426.25
2019-05-19T00:23:59.781Z,94432.02
2019-05-19T00:26:26.639Z,94432.53
2019-05-19T00:28:53.447Z,94437.03
2019-05-19T00:31:21.326Z,94439.05
2019-05-19T00:33:48.226Z,94438.98
2019-05-19T00:36:14.972Z,94443.48
2019-05-19T00:38:41.729Z,94438.77
2019-05-19T00:41:08.487Z,94433.53
2019-05-19T00:43:35.240Z,94432.89
2019-05-19T00:46:03.319Z,94436.47
2019-05-19T00:48:30.160Z,94439.98
2019-05-19T00:50:56.926Z,94443.99
2019-05-19T00:53:23.647Z,94451.20
2019-05-19T00:55:50.823Z,94448.48
2019-05-19T00:58:18.405Z,94453.09
2019-05-19T01:00:45.095Z,94443.34
2019-05-19T01:03:11.967Z,94451.41
2019-05-19T01:05:38.709Z,94447.25
2019-05-19T01:08:05.490Z,94446.22
2019-05-19T01:10:32.234Z,94455.22
2019-05-19T01:12:58.898Z,94448.42
2019-05-19T01:15:25.583Z,94445.21
2019-05-19T01:17:52.605Z,94445.06
2019-05-19T01:20:20.636Z,94445.03
2019-05-19T01:22:47.309Z,94447.67
2019-05-19T01:25:14.255Z,94448.20
2019-05-19T01:27:41.049Z,94451.91
2019-05-19T01:30:09.137Z,94441.34
2019-05-19T01:32:35.890Z,94447.34
2019-05-19T01:35:04.146Z,94438.08
2019-05-19T01:37:30.927Z,94449.91
2019-05-19T01:39:57.669Z,94447.12
2019-05-19T01:42:24.453Z,94442.02
2019-05-19T01:44:51.331Z,94449.05
2019-05-19T01:47:18.166Z,94446.69
2019-05-19T01:49:44.996Z,94448.13
2019-05-19T01:52:11.669Z,94446.92
2019-05-19T01:54:38.420Z,94449.78
2019-05-19T01:57:05.102Z,94444.61
2019-05-19T01:59:31.791Z,94441.20
2019-05-19T02:01:58.539Z,94446.48
2019-05-19T02:04:25.200Z,94456.16
2019-05-19T02:06:51.916Z,94454.14
2019-05-19T02:09:18.735Z,94460.45
2019-05-19T02:11:45.501Z,94461.38
2019-05-19T02:14:12.269Z,94456.27
2019-05-19T02:16:39.091Z,94463.67
2019-05-19T02:19:05.773Z,94453.70
2019-05-19T02:21:32.718Z,94466.50
2019-05-19T02:23:59.459Z,94466.77
2019-05-19T02:26:26.149Z,94466.56
2019-05-19T02:28:52.902Z,94470.38
2019-05-19T02:31:19.657Z,94475.52
2019-05-19T02:33:46.355Z,94470.05
2019-05-19T02:36:13.096Z,94473.26
2019-05-19T02:38:40.087Z,94474.69
2019-05-19T02:41:08.891Z,94478.82
2019-05-19T02:43:36.544Z,94484.55
2019-05-19T02:46:03.753Z,94478.69
2019-05-19T02:48:32.049Z,94483.02
2019-05-19T02:51:01.048Z,94484.91
2019-05-19T02:53:29.334Z,94483.88
2019-05-19T02:55:57.030Z,94489.25
2019-05-19T02:58:24.610Z,94480.42
2019-05-19T03:00:51.324Z,94485.91
2019-05-19T03:03:18.019Z,94490.55
2019-05-19T03:05:44.781Z,94490.47
2019-05-19T03:08:11.475Z,94494.59
2019-05-19T03:10:38.152Z,94494.86
2019-05-19T03:13:04.812Z,94500.88
2019-05-19T03:15:31.533Z,94500.77
2019-05-19T03:17:58.202Z,94499.14
2019-05-19T03:20:24.961Z,94503.77
2019-05-19T03:22:51.731Z,94506.25
2019-05-19T03:25:18.647Z,94508.41
2019-05-19T03:27:45.330Z,94510.33
2019-05-19T03:30:32.753Z,94509.88
2019-05-19T03:33:13.354Z,94512.18
2019-05-19T03:35:40.154Z,94514.34
2019-05-19T03:38:06.822Z,94511.21
2019-05-19T03:40:33.600Z,94504.09
2019-05-19T03:43:00.269Z,94511.45
2019-05-19T03:45:26.962Z,94511.68
2019-05-19T03:47:53.644Z,94526.94
2019-05-19T03:50:20.603Z,94524.10
2019-05-19T03:52:47.444Z,94528.06
2019-05-19T03:55:14.254Z,94532.19
2019-05-19T03:57:41.049Z,94528.80
2019-05-19T04:00:08.481Z,94532.54
2019-05-19T04:02:35.116Z,94532.67
2019-05-19T04:05:01.962Z,94532.34
2019-05-19T04:07:28.683Z,94532.67
2019-05-19T04:09:55.492Z,94531.55
2019-05-19T04:12:22.182Z,94534.99
2019-05-19T04:14:48.873Z,94534.55
2019-05-19T04:17:15.643Z,94535.78
2019-05-19T04:19:42.437Z,94541.50
2019-05-19T04:22:09.124Z,94538.92
2019-05-19T04:24:39.480Z,94535.08
2019-05-19T04:27:06.131Z,94538.94
2019-05-19T04:29:33.163Z,94548.17
2019-05-19T04:31:59.837Z,94555.11
2019-05-19T04:34:26.560Z,94543.25
2019-05-19T04:36:53.258Z,94548.14
2019-05-19T04:39:20.021Z,94542.52
2019-05-19T04:41:46.694Z,94548.36
2019-05-19T04:44:13.397Z,94541.13
2019-05-19T04:46:40.163Z,94537.47
2019-05-19T04:49:06.915Z,94531.58
2019-05-19T04:51:33.614Z,94530.38
2019-05-19T04:54:00.313Z,94530.48
2019-05-19T04:56:27.014Z,94526.54
2019-05-19T04:58:53.828Z,94517.62
2019-05-19T05:01:20.495Z,94514.34
2019-05-19T05:03:47.192Z,94520.39
2019-05-19T05:06:13.860Z,94519.48
2019-05-19T05:08:40.607Z,94521.86
2019-05-19T05:11:07.277Z,94518.05
2019-05-19T05:13:34.092Z,94510.31
2019-05-19T05:16:00.851Z,94510.31
2019-05-19T05:18:27.677Z,94508.72
2019-05-19T05:20:54.436Z,94518.66
2019-05-19T05:23:21.161Z,94524.93
2019-05-19T05:25:47.862Z,94525.95
2019-05-19T05:28:14.753Z,94519.34
2019-05-19T05:30:41.441Z,94504.94
2019-05-19T05:33:08.606Z,94525.12
2019-05-19T05:35:35.287Z,94523.68
2019-05-19T05:38:02.252Z,94521.28
2019-05-19T05:40:29.033Z,94522.41
2019-05-19T05:42:55.718Z,94531.30
2019-05-19T05:45:22.801Z,94524.38
2019-05-19T05:47:49.492Z,94522.91
2019-05-19T05:50:16.413Z,94524.27
2019-05-19T05:52:43.151Z,94522.84
2019-05-19T05:55:09.962Z,94521.25
2019-05-19T05:57:36.729Z,94517.85
2019-05-19T06:00:06.065Z,94515.19
2019-05-19T06:02:32.783Z,94520.70
2019-05-19T06:04:59.504Z,94516.68
2019-05-19T06:07:26.275Z,94520.61
2019-05-19T06:09:53.326Z,94511.33
2019-05-19T06:12:20.015Z,94520.87
2019-05-19T06:14:46.761Z,94513.67
2019-05-19T06:17:13.552Z,94520.11
2019-05-19T06:19:40.232Z,94514.31
2019-05-19T06:22:07.088Z,94515.56
2019-05-19T06:24:33.774Z,94512.09
2019-05-19T06:27:00.467Z,94505.18
2019-05-19T06:29:27.238Z,94515.72
2019-05-19T06:31:55.742Z,94510.81
2019-05-19T06:34:22.455Z,94511.38
2019-05-19T06:36:49.193Z,94512.14
2019-05-19T06:39:15.968Z,94511.06
2019-05-19T06:41:42.737Z,94513.16
2019-05-19T06:44:09.500Z,94512.37
2019-05-19T06:46:36.193Z,94506.81
2019-05-19T06:49:03.026Z,94511.53
2019-05-19T06:51:30.139Z,94507.45
2019-05-19T06:53:56.811Z,94508.94
2019-05-19T06:56:23.510Z,94513.91
2019-05-19T06:58:50.239Z,94514.68
2019-05-19T07:01:16.910Z,94512.13
2019-05-19T07:03:43.593Z,94520.47
2019-05-19T07:06:10.290Z,94503.91
2019-05-19T07:11:03.538Z,94513.20
2019-05-19T07:13:30.438Z,94506.14
2019-05-19T07:15:57.143Z,94515.21
2019-05-19T07:18:23.809Z,94512.19
2019-05-19T07:20:50.896Z,94514.59
2019-05-19T07:23:27.782Z,94518.56
2019-05-19T07:25:46.167Z,94510.58
2019-05-19T07:28:12.972Z,94512.21
2019-05-19T07:30:39.697Z,94513.20
2019-05-19T07:33:06.491Z,94510.33
2019-05-19T07:35:33.249Z,94507.54
2019-05-19T07:37:59.948Z,94507.39
2019-05-19T07:40:26.616Z,94501.28
2019-05-19T07:42:53.356Z,94502.77
2019-05-19T07:45:20.401Z,94501.64
2019-05-19T07:47:47.148Z,94489.20
2019-05-19T07:50:13.970Z,94492.19
2019-05-19T07:52:40.738Z,94494.54
2019-05-19T07:55:07.579Z,94488.28
2019-05-19T07:57:34.316Z,94491.30
2019-05-19T08:00:01.002Z,94487.94
2019-05-19T08:02:27.785Z,94487.58
2019-05-19T08:04:54.514Z,94489.98
2019-05-19T08:07:22.367Z,94484.80
2019-05-19T08:09:49.053Z,94484.03
2019-05-19T08:12:16.997Z,94484.50
2019-05-19T08:14:43.718Z,94488.00
2019-05-19T08:17:10.391Z,94478.39
2019-05-19T08:19:37.134Z,94479.41
2019-05-19T08:22:03.810Z,94471.69
2019-05-19T08:24:30.522Z,94481.86
2019-05-19T08:26:57.296Z,94475.67
2019-05-19T08:29:24.121Z,94473.59
2019-05-19T08:31:50.925Z,94473.20
2019-05-19T08:34:18.450Z,94469.73
2019-05-19T08:36:45.160Z,94469.41
2019-05-19T08:39:11.829Z,94469.27
2019-05-19T08:41:38.567Z,94471.51
2019-05-19T08:44:05.692Z,94462.54
2019-05-19T08:46:32.445Z,94465.50
2019-05-19T08:48:59.203Z,94466.69
2019-05-19T08:51:25.881Z,94469.08
2019-05-19T08:53:52.567Z,94462.52
2019-05-19T08:56:19.393Z,94454.42
2019-05-19T08:58:46.091Z,94445.36
2019-05-19T09:01:12.778Z,94445.14
2019-05-19T09:03:39.525Z,94460.21
2019-05-19T09:06:06.237Z,94460.64
2019-05-19T09:08:33.032Z,94470.70
2019-05-19T09:10:59.758Z,94467.30
2019-05-19T09:13:26.549Z,94466.41
2019-05-19T09:15:53.715Z,94460.05
2019-05-19T09:18:20.416Z,94465.67
2019-05-19T09:20:47.130Z,94467.61
2019-05-19T09:23:13.882Z,94463.12
2019-05-19T09:25:40.619Z,94460.34
2019-05-19T09:28:08.472Z,94468.48
2019-05-19T09:30:35.259Z,94467.11
2019-05-19T09:33:01.966Z,94458.18
2019-05-19T09:35:28.639Z,94461.16
2019-05-19T09:37:55.372Z,94457.38
2019-05-19T09:40:22.052Z,94463.88
2019-05-19T09:42:48.717Z,94462.70
2019-05-19T09:45:16.031Z,94478.67
2019-05-19T09:47:42.932Z,94486.00
2019-05-19T09:50:10.161Z,94479.01
2019-05-19T09:52:36.858Z,94481.38
2019-05-19T09:55:05.183Z,94479.03
2019-05-19T09:57:32.018Z,94495.63
2019-05-19T09:59:58.699Z,94475.07
2019-05-19T10:02:25.382Z,94475.85
2019-05-19T10:04:52.290Z,94465.38
2019-05-19T10:07:20.053Z,94479.44
2019-05-19T10:09:57.554Z,94469.05
2019-05-19T10:12:24.195Z,94465.91
2019-05-19T10:14:50.885Z,94467.30
2019-05-19T10:17:17.533Z,94459.77
2019-05-19T10:19:44.273Z,94457.01
2019-05-19T10:22:10.930Z,94448.06
2019-05-19T10:24:37.702Z,94444.32
2019-05-19T10:27:04.471Z,94448.69
2019-05-19T10:29:31.306Z,94441.12
2019-05-19T10:31:58.001Z,94442.91
2019-05-19T10:34:24.701Z,94446.86
2019-05-19T10:36:51.530Z,94452.63
2019-05-19T10:39:18.283Z,94453.43
2019-05-19T10:41:44.952Z,94445.30
2019-05-19T10:44:11.643Z,94434.81
2019-05-19T10:46:38.413Z,94429.47
2019-05-19T10:49:05.534Z,94427.48
2019-05-19T10:51:32.225Z,94429.65
2019-05-19T10:53:58.992Z,94419.36
2019-05-19T10:56:25.729Z,94425.09
2019-05-19T10:58:52.437Z,94418.75
2019-05-19T11:01:19.259Z,94423.88
2019-05-19T11:03:45.908Z,94421.30
2019-05-19T11:06:12.653Z,94418.34
2019-05-19T11:08:39.730Z,94403.89
2019-05-19T11:11:06.401Z,94401.30
2019-05-19T11:13:33.104Z,94401.09
2019-05-19T11:15:59.864Z,94399.65
2019-05-19T11:18:26.623Z,94393.30
2019-05-19T11:20:53.292Z,94400.83
2019-05-19T11:23:20.063Z,94394.70
2019-05-19T11:25:51.627Z,94389.12
2019-05-19T11:28:15.382Z,94386.73
2019-05-19T11:30:42.215Z,94386.92
2019-05-19T11:33:09.007Z,94400.04
2019-05-19T11:35:35.729Z,94397.30
2019-05-19T11:38:02.499Z,94396.16
2019-05-19T11:40:29.186Z,94396.33
2019-05-19T11:42:55.914Z,94395.95
2019-05-19T11:45:22.613Z,94397.14
2019-05-19T11:47:49.339Z,94391.01
2019-05-19T11:50:16.186Z,94385.05
2019-05-19T11:52:42.883Z,94388.64
2019-05-19T11:55:09.577Z,94388.04
2019-05-19T11:57:36.338Z,94392.20
2019-05-19T12:00:04.986Z,94391.20
2019-05-19T12:02:31.748Z,94386.27
2019-05-19T12:04:58.546Z,94376.53
2019-05-19T12:07:25.441Z,94377.52
2019-05-19T12:09:52.115Z,94372.90
2019-05-19T12:12:18.912Z,94373.69
2019-05-19T12:14:45.605Z,94356.17
2019-05-19T12:17:12.390Z,94353.52
2019-05-19T12:19:39.112Z,94349.07
2019-05-19T12:22:05.835Z,94351.97
2019-05-19T12:24:33.520Z,94354.54
2019-05-19T12:27:00.222Z,94343.07
2019-05-19T12:29:26.894Z,94352.03
2019-05-19T12:31:53.560Z,94355.41
2019-05-19T12:34:21.411Z,94360.27
2019-05-19T12:36:48.766Z,94358.49
2019-05-19T12:39:20.574Z,94360.52
2019-05-19T12:41:58.896Z,94358.14
2019-05-19T12:44:25.609Z,94360.13
2019-05-19T12:46:52.324Z,94353.41
2019-05-19T12:49:19.050Z,94345.64
2019-05-19T12:51:45.842Z,94350.59
2019-05-19T12:54:13.338Z,94356.11
2019-05-19T12:56:40.407Z,94354.46
2019-05-19T12:59:07.207Z,94359.08
2019-05-19T13:01:33.939Z,94362.25
2019-05-19T13:04:00.678Z,94360.00
2019-05-19T13:06:27.469Z,94359.13
2019-05-19T13:08:54.163Z,94359.92
2019-05-19T13:11:21.072Z,94350.99
2019-05-19T13:13:47.862Z,94352.00
2019-05-19T13:16:15.577Z,94357.20
2019-05-19T13:18:42.350Z,94369.28
2019-05-19T13:21:09.107Z,94369.31
2019-05-19T13:23:35.803Z,94368.47
2019-05-19T13:26:02.611Z,94376.64
2019-05-19T13:28:29.295Z,94369.28
2019-05-19T13:30:55.982Z,94362.00
2019-05-19T13:33:22.732Z,94362.41
2019-05-19T13:35:49.489Z,94359.83
2019-05-19T13:38:16.174Z,94355.23
2019-05-19T13:40:42.897Z,94357.81
2019-05-19T13:43:09.645Z,94351.02
2019-05-19T13:45:36.425Z,94346.08
2019-05-19T13:48:03.269Z,94341.11
2019-05-19T13:50:30.151Z,94337.50
2019-05-19T13:52:56.932Z,94312.00
2019-05-19T13:55:23.617Z,94308.61
2019-05-19T13:57:50.367Z,94323.45
2019-05-19T14:00:17.041Z,94316.39
2019-05-19T14:02:43.914Z,94311.45
2019-05-19T14:05:11.077Z,94327.00
2019-05-19T14:07:37.745Z,94317.06
2019-05-19T14:10:05.741Z,94313.42
2019-05-19T14:12:32.674Z,94311.67
2019-05-19T14:14:59.656Z,94318.95
2019-05-19T14:17:26.430Z,94317.38
2019-05-19T14:19:53.269Z,94314.64
2019-05-19T14:22:20.143Z,94306.22
2019-05-19T14:24:46.908Z,94303.19
2019-05-19T14:27:28.426Z,94293.92
2019-05-19T14:29:42.323Z,94283.87
2019-05-19T14:32:09.100Z,94284.25
2019-05-19T14:34:35.912Z,94300.41
2019-05-19T14:37:02.576Z,94300.83
2019-05-19T14:39:29.295Z,94300.41
2019-05-19T14:41:57.822Z,94308.41
2019-05-19T14:44:24.515Z,94301.98
2019-05-19T14:46:51.456Z,94300.41
2019-05-19T14:49:18.220Z,94297.05
2019-05-19T14:51:44.929Z,94290.14
2019-05-19T14:54:11.594Z,94286.30
2019-05-19T14:56:38.463Z,94292.02
2019-05-19T14:59:05.231Z,94287.81
2019-05-19T15:01:32.003Z,94276.95
2019-05-19T15:03:59.202Z,94271.66
2019-05-19T15:06:25.861Z,94274.48
2019-05-19T15:08:52.562Z,94267.56
2019-05-19T15:11:19.388Z,94260.24
2019-05-19T15:13:46.094Z,94255.38
2019-05-19T15:16:12.801Z,94251.92
2019-05-19T15:18:39.563Z,94265.33
2019-05-19T15:21:06.256Z,94262.51
2019-05-19T15:23:32.989Z,94267.20
2019-05-19T15:25:59.776Z,94270.34
2019-05-19T15:28:26.452Z,94268.30
2019-05-19T15:30:53.473Z,94270.34
2019-05-19T15:33:20.180Z,94268.25
2019-05-19T15:35:46.965Z,94273.13
2019-05-19T15:38:13.706Z,94281.27
2019-05-19T15:40:40.406Z,94273.44
2019-05-19T15:43:07.110Z,94269.88
2019-05-19T15:45:33.913Z,94264.64
2019-05-19T15:48:00.590Z,94263.30
2019-05-19T15:50:27.306Z,94260.50
2019-05-19T15:52:54.111Z,94260.55
2019-05-19T15:55:20.912Z,94248.02
2019-05-19T15:57:47.922Z,94245.15
2019-05-19T16:00:15.951Z,94241.73
2019-05-19T16:02:42.723Z,94248.36
2019-05-19T16:05:09.684Z,94248.25
2019-05-19T16:07:36.527Z,94237.81
2019-05-19T16:10:06.723Z,94240.09
2019-05-19T16:12:33.525Z,94244.45
2019-05-19T16:15:00.334Z,94239.89
2019-05-19T16:17:27.041Z,94244.66
2019-05-19T16:19:53.746Z,94240.22
2019-05-19T16:22:20.486Z,94247.14
2019-05-19T16:24:47.284Z,94249.02
2019-05-19T16:27:13.977Z,94247.31
2019-05-19T16:29:41.934Z,94248.06
2019-05-19T16:32:08.831Z,94249.98
2019-05-19T16:34:35.638Z,94244.78
2019-05-19T16:37:02.704Z,94246.77
2019-05-19T16:41:57.076Z,94245.91
2019-05-19T16:44:23.845Z,94248.97
2019-05-19T16:46:50.532Z,94242.37
2019-05-19T16:49:17.303Z,94242.58
2019-05-19T16:51:43.985Z,94233.77
2019-05-19T16:54:15.541Z,94235.00
2019-05-19T16:56:42.217Z,94232.12
2019-05-19T16:59:09.989Z,94230.52
2019-05-19T17:01:36.721Z,94224.78
2019-05-19T17:04:03.679Z,94225.06
2019-05-19T17:06:30.413Z,94216.16
2019-05-19T17:08:59.118Z,94218.26
2019-05-19T17:11:26.098Z,94204.36
2019-05-19T17:13:52.870Z,94202.23
2019-05-19T17:16:20.568Z,94208.21
2019-05-19T17:18:47.343Z,94199.38
2019-05-19T17:21:14.095Z,94195.11
2019-05-19T17:23:40.762Z,94188.06
2019-05-19T17:26:07.524Z,94191.41
2019-05-19T17:28:34.692Z,94190.61
2019-05-19T17:31:01.386Z,94187.13
2019-05-19T17:33:28.081Z,94202.04
2019-05-19T17:35:54.798Z,94192.41
2019-05-19T17:38:21.546Z,94198.26
2019-05-19T17:40:48.292Z,94201.27
2019-05-19T17:43:15.409Z,94196.59
2019-05-19T17:45:42.143Z,94192.00
2019-05-19T17:48:11.690Z,94192.95
2019-05-19T17:50:37.540Z,94194.98
2019-05-19T17:53:04.500Z,94194.86
2019-05-19T17:55:33.034Z,94192.16
2019-05-19T17:58:01.234Z,94194.53
2019-05-19T18:00:40.041Z,94188.11
2019-05-19T18:03:07.319Z,94186.72
2019-05-19T18:05:34.416Z,94186.18
2019-05-19T18:08:01.504Z,94187.06
2019-05-19T18:10:28.663Z,94186.11
2019-05-19T18:12:55.643Z,94180.83
2019-05-19T18:15:22.458Z,94191.88
2019-05-19T18:17:49.214Z,94190.63
2019-05-19T18:20:23.733Z,94183.52
2019-05-19T18:22:45.800Z,94181.41
2019-05-19T18:25:12.571Z,94189.59
2019-05-19T18:27:39.264Z,94182.19
2019-05-19T18:30:06.170Z,94175.77
2019-05-19T18:32:33.013Z,94186.77
2019-05-19T18:34:59.694Z,94189.81
2019-05-19T18:37:26.488Z,94174.99
2019-05-19T18:39:53.269Z,94182.08
2019-05-19T18:42:20.608Z,94190.08
2019-05-19T18:44:47.508Z,94172.20
2019-05-19T18:47:14.710Z,94178.64
2019-05-19T18:49:41.686Z,94179.09
2019-05-19T18:52:08.451Z,94178.45
2019-05-19T18:54:35.163Z,94170.09
2019-05-19T18:57:02.176Z,94174.30
2019-05-19T18:59:29.070Z,94155.97
2019-05-19T19:01:55.766Z,94152.27
2019-05-19T19:04:22.767Z,94150.37
2019-05-19T19:06:49.582Z,94156.72
2019-05-19T19:09:16.284Z,94157.05
2019-05-19T19:11:43.070Z,94165.28
2019-05-19T19:14:09.942Z,94162.55
2019-05-19T19:16:36.691Z,94167.86
2019-05-19T19:19:03.516Z,94166.56
2019-05-19T19:21:30.282Z,94149.77
2019-05-19T19:23:56.992Z,94161.15
2019-05-19T19:26:23.844Z,94179.59
2019-05-19T19:28:50.714Z,94148.09
2019-05-19T19:31:17.495Z,94151.55
2019-05-19T19:33:44.313Z,94170.27
2019-05-19T19:36:11.130Z,94126.47
2019-05-19T19:38:37.973Z,94164.50
2019-05-19T19:41:04.711Z,94159.02
2019-05-19T19:43:32.550Z,94154.39
2019-05-19T19:45:59.348Z,94146.75
2019-05-19T19:48:26.135Z,94139.50
2019-05-19T19:50:53.090Z,94144.45
2019-05-19T19:53:20.876Z,94135.55
2019-05-19T19:55:47.690Z,94143.65
2019-05-19T19:58:14.489Z,94140.74
2019-05-19T20:00:43.185Z,94123.23
2019-05-19T20:03:10.484Z,94131.31
2019-05-19T20:05:39.782Z,94131.50
2019-05-19T20:08:06.777Z,94142.19
2019-05-19T20:10:35.159Z,94134.55
2019-05-19T20:13:02.061Z,94117.61
2019-05-19T20:15:28.828Z,94159.67
2019-05-19T20:17:55.662Z,94120.20
2019-05-19T20:20:24.149Z,94156.44
2019-05-19T20:22:50.983Z,94133.55
2019-05-19T20:25:17.774Z,94168.06
2019-05-19T20:27:44.723Z,94130.11
2019-05-19T20:30:11.841Z,94145.61
2019-05-19T20:32:38.558Z,94155.18
2019-05-19T20:35:05.657Z,94126.44
2019-05-19T20:37:32.499Z,94130.59
2019-05-19T20:39:59.176Z,94118.03
2019-05-19T20:42:25.937Z,94140.94
2019-05-19T20:44:52.600Z,94131.60
2019-05-19T20:47:19.375Z,94137.32
2019-05-19T20:49:46.036Z,94132.98
2019-05-19T20:52:13.241Z,94132.08
2019-05-19T20:54:40.095Z,94139.77
2019-05-19T20:57:06.863Z,94133.28
2019-05-19T20:59:33.642Z,94161.20
2019-05-19T21:02:00.457Z,94158.17
2019-05-19T21:04:27.303Z,94170.53
2019-05-19T21:06:54.293Z,94182.81
2019-05-19T21:09:21.112Z,94168.45
2019-05-19T21:11:47.953Z,94178.61
2019-05-19T21:14:14.644Z,94183.08
2019-05-19T21:16:41.406Z,94183.24
2019-05-19T21:19:09.944Z,94192.64
2019-05-19T21:21:36.710Z,94197.56
2019-05-19T21:24:03.652Z,94205.06
2019-05-19T21:26:30.398Z,94198.98
2019-05-19T21:28:57.162Z,94193.73
2019-05-19T21:31:23.863Z,94204.80
2019-05-19T21:33:50.570Z,94206.00
2019-05-19T21:36:18.314Z,94212.53
2019-05-19T21:38:45.446Z,94220.94
2019-05-19T21:41:12.420Z,94227.97
2019-05-19T21:43:39.159Z,94224.55
2019-05-19T21:46:06.580Z,94224.50
2019-05-19T21:48:34.338Z,94221.52
2019-05-19T21:51:01.571Z,94204.38
2019-05-19T21:53:28.441Z,94221.20
2019-05-19T21:55:55.355Z,94232.53
2019-05-19T21:58:22.187Z,94219.83
2019-05-19T22:00:49.358Z,94225.11
2019-05-19T22:03:16.843Z,94230.06
2019-05-19T22:05:52.922Z,94235.70
2019-05-19T22:08:18.441Z,94237.23
2019-05-19T22:10:45.302Z,94237.28
2019-05-19T22:13:12.304Z,94228.39
2019-05-19T22:15:38.999Z,94235.03
2019-05-19T22:18:05.856Z,94226.45
2019-05-19T22:20:32.702Z,94232.88
2019-05-19T22:22:59.443Z,94230.07
2019-05-19T22:25:26.148Z,94234.62
2019-05-19T22:27:52.827Z,94230.71
2019-05-19T22:30:20.052Z,94238.94
2019-05-19T22:32:48.655Z,94229.48
2019-05-19T22:35:15.368Z,94221.54
2019-05-19T22:37:42.066Z,94216.11
2019-05-19T22:40:09.408Z,94219.29
2019-05-19T22:42:36.154Z,94215.45
2019-05-19T22:45:06.534Z,94216.19
2019-05-19T22:47:33.213Z,94204.03
2019-05-19T22:50:00.030Z,94202.16
2019-05-19T22:52:26.928Z,94210.41
2019-05-19T22:54:53.662Z,94214.67
2019-05-19T22:57:20.433Z,94212.95
2019-05-19T22:59:47.161Z,94218.14
2019-05-19T23:02:13.851Z,94217.13
2019-05-19T23:04:40.817Z,94226.63
2019-05-19T23:07:07.486Z,94214.31
2019-05-19T23:09:34.276Z,94220.70
2019-05-19T23:12:00.979Z,94219.24
2019-05-19T23:14:27.893Z,94224.80
2019-05-19T23:16:54.578Z,94225.59
2019-05-19T23:19:21.363Z,94223.95
2019-05-19T23:21:48.127Z,94223.00
2019-05-19T23:24:14.926Z,94222.57
2019-05-19T23:26:41.907Z,94217.06
2019-05-19T23:29:08.607Z,94211.57
2019-05-19T23:31:35.363Z,94210.41
2019-05-19T23:34:02.145Z,94206.52
2019-05-19T23:36:28.821Z,94210.55
2019-05-19T23:38:55.562Z,94200.59
2019-05-19T23:41:22.241Z,94203.09
2019-05-19T23:43:48.939Z,94204.62
2019-05-19T23:46:15.644Z,94202.52
2019-05-19T23:48:42.388Z,94190.39
2019-05-19T23:51:09.182Z,94194.91
2019-05-19T23:53:35.942Z,94194.17
2019-05-19T23:56:03.009Z,94192.16
2019-05-19T23:58:29.685Z,94201.39
